sensor_id;sensor_type;location;lat;lon;timestamp;temperature;humidity
41481;DHT22;27217;51.220;5.308;2022-07-11T00:02:02;18.50;99.90
41481;DHT22;27217;51.220;5.308;2022-07-11T00:04:28;18.30;99.90
41481;DHT22;27217;51.220;5.308;2022-07-11T00:06:55;18.20;99.90
41481;DHT22;27217;51.220;5.308;2022-07-11T00:09:21;18.30;99.90
41481;DHT22;27217;51.220;5.308;2022-07-11T00:11:47;18.00;99.90
41481;DHT22;27217;51.220;5.308;2022-07-11T00:14:13;17.90;99.90
41481;DHT22;27217;51.220;5.308;2022-07-11T00:16:40;17.80;99.90
41481;DHT22;27217;51.220;5.308;2022-07-11T00:19:06;17.90;99.90
41481;DHT22;27217;51.220;5.308;2022-07-11T00:21:32;17.80;99.90
41481;DHT22;27217;51.220;5.308;2022-07-11T00:23:59;17.80;99.90
41481;DHT22;27217;51.220;5.308;2022-07-11T00:26:25;17.80;99.90
41481;DHT22;27217;51.220;5.308;2022-07-11T00:28:50;17.80;99.90
41481;DHT22;27217;51.220;5.308;2022-07-11T00:31:16;17.70;99.90
41481;DHT22;27217;51.220;5.308;2022-07-11T00:33:42;17.70;99.90
41481;DHT22;27217;51.220;5.308;2022-07-11T00:36:08;17.70;99.90
41481;DHT22;27217;51.220;5.308;2022-07-11T00:38:34;17.60;99.90
41481;DHT22;27217;51.220;5.308;2022-07-11T00:41:00;17.50;99.90
41481;DHT22;27217;51.220;5.308;2022-07-11T00:43:36;17.40;99.90
41481;DHT22;27217;51.220;5.308;2022-07-11T00:46:02;17.60;99.90
41481;DHT22;27217;51.220;5.308;2022-07-11T00:48:28;17.70;99.90
41481;DHT22;27217;51.220;5.308;2022-07-11T00:50:54;17.50;99.90
41481;DHT22;27217;51.220;5.308;2022-07-11T00:53:20;17.50;99.90
41481;DHT22;27217;51.220;5.308;2022-07-11T00:55:49;17.40;99.90
41481;DHT22;27217;51.220;5.308;2022-07-11T00:58:17;17.40;99.90
41481;DHT22;27217;51.220;5.308;2022-07-11T01:00:43;17.50;99.90
41481;DHT22;27217;51.220;5.308;2022-07-11T01:03:09;17.60;99.90
41481;DHT22;27217;51.220;5.308;2022-07-11T01:05:35;17.50;99.90
41481;DHT22;27217;51.220;5.308;2022-07-11T01:08:01;17.50;99.90
41481;DHT22;27217;51.220;5.308;2022-07-11T01:10:26;17.70;99.90
41481;DHT22;27217;51.220;5.308;2022-07-11T01:12:52;17.50;99.90
41481;DHT22;27217;51.220;5.308;2022-07-11T01:15:18;17.20;99.90
41481;DHT22;27217;51.220;5.308;2022-07-11T01:17:44;17.20;99.90
41481;DHT22;27217;51.220;5.308;2022-07-11T01:20:09;17.10;99.90
41481;DHT22;27217;51.220;5.308;2022-07-11T01:22:36;16.90;99.90
41481;DHT22;27217;51.220;5.308;2022-07-11T01:25:05;16.90;99.90
41481;DHT22;27217;51.220;5.308;2022-07-11T01:27:31;16.90;99.90
41481;DHT22;27217;51.220;5.308;2022-07-11T01:29:57;16.90;99.90
41481;DHT22;27217;51.220;5.308;2022-07-11T01:32:22;16.90;99.90
41481;DHT22;27217;51.220;5.308;2022-07-11T01:34:48;16.90;99.90
41481;DHT22;27217;51.220;5.308;2022-07-11T01:37:14;17.00;99.90
41481;DHT22;27217;51.220;5.308;2022-07-11T01:39:40;17.00;99.90
41481;DHT22;27217;51.220;5.308;2022-07-11T01:42:06;16.90;99.90
41481;DHT22;27217;51.220;5.308;2022-07-11T01:44:32;16.90;99.90
41481;DHT22;27217;51.220;5.308;2022-07-11T01:46:58;16.70;99.90
41481;DHT22;27217;51.220;5.308;2022-07-11T01:49:24;16.70;99.90
41481;DHT22;27217;51.220;5.308;2022-07-11T01:51:57;16.80;99.90
41481;DHT22;27217;51.220;5.308;2022-07-11T01:54:23;16.80;99.90
41481;DHT22;27217;51.220;5.308;2022-07-11T01:56:48;16.70;99.90
41481;DHT22;27217;51.220;5.308;2022-07-11T01:59:14;16.60;99.90
41481;DHT22;27217;51.220;5.308;2022-07-11T02:01:39;16.40;99.90
41481;DHT22;27217;51.220;5.308;2022-07-11T02:04:05;16.40;99.90
41481;DHT22;27217;51.220;5.308;2022-07-11T02:06:32;16.30;99.90
41481;DHT22;27217;51.220;5.308;2022-07-11T02:08:58;16.50;99.90
41481;DHT22;27217;51.220;5.308;2022-07-11T02:11:23;16.60;99.90
41481;DHT22;27217;51.220;5.308;2022-07-11T02:13:49;16.50;99.90
41481;DHT22;27217;51.220;5.308;2022-07-11T02:16:17;16.40;99.90
41481;DHT22;27217;51.220;5.308;2022-07-11T02:18:43;16.40;99.90
41481;DHT22;27217;51.220;5.308;2022-07-11T02:21:08;16.30;99.90
41481;DHT22;27217;51.220;5.308;2022-07-11T02:23:34;16.20;99.90
41481;DHT22;27217;51.220;5.308;2022-07-11T02:26:00;16.30;99.90
41481;DHT22;27217;51.220;5.308;2022-07-11T02:28:26;16.40;99.90
41481;DHT22;27217;51.220;5.308;2022-07-11T02:30:52;16.40;99.90
41481;DHT22;27217;51.220;5.308;2022-07-11T02:33:18;16.40;99.90
41481;DHT22;27217;51.220;5.308;2022-07-11T02:35:45;16.40;99.90
41481;DHT22;27217;51.220;5.308;2022-07-11T02:38:13;16.30;99.90
41481;DHT22;27217;51.220;5.308;2022-07-11T02:40:40;16.30;99.90
41481;DHT22;27217;51.220;5.308;2022-07-11T02:43:06;16.30;99.90
41481;DHT22;27217;51.220;5.308;2022-07-11T02:45:31;16.40;99.90
41481;DHT22;27217;51.220;5.308;2022-07-11T02:47:57;16.30;99.90
41481;DHT22;27217;51.220;5.308;2022-07-11T02:50:23;16.30;99.90
41481;DHT22;27217;51.220;5.308;2022-07-11T02:52:50;16.40;99.90
41481;DHT22;27217;51.220;5.308;2022-07-11T02:55:15;16.40;99.90
41481;DHT22;27217;51.220;5.308;2022-07-11T02:57:41;16.40;99.90
41481;DHT22;27217;51.220;5.308;2022-07-11T03:00:09;16.40;99.90
41481;DHT22;27217;51.220;5.308;2022-07-11T03:02:36;16.40;99.90
41481;DHT22;27217;51.220;5.308;2022-07-11T03:05:02;16.20;99.90
41481;DHT22;27217;51.220;5.308;2022-07-11T03:07:28;16.00;99.90
41481;DHT22;27217;51.220;5.308;2022-07-11T03:09:55;16.10;99.90
41481;DHT22;27217;51.220;5.308;2022-07-11T03:12:21;16.10;99.90
41481;DHT22;27217;51.220;5.308;2022-07-11T03:14:47;16.00;99.90
41481;DHT22;27217;51.220;5.308;2022-07-11T03:17:13;16.00;99.90
41481;DHT22;27217;51.220;5.308;2022-07-11T03:19:38;16.00;99.90
41481;DHT22;27217;51.220;5.308;2022-07-11T03:22:04;16.10;99.90
41481;DHT22;27217;51.220;5.308;2022-07-11T03:24:30;16.20;99.90
41481;DHT22;27217;51.220;5.308;2022-07-11T03:26:56;16.00;99.90
41481;DHT22;27217;51.220;5.308;2022-07-11T03:29:22;15.90;99.90
41481;DHT22;27217;51.220;5.308;2022-07-11T03:31:47;15.70;99.90
41481;DHT22;27217;51.220;5.308;2022-07-11T03:34:13;15.80;99.90
41481;DHT22;27217;51.220;5.308;2022-07-11T03:36:39;15.90;99.90
41481;DHT22;27217;51.220;5.308;2022-07-11T03:39:05;15.90;99.90
41481;DHT22;27217;51.220;5.308;2022-07-11T03:41:31;15.80;99.90
41481;DHT22;27217;51.220;5.308;2022-07-11T03:43:56;15.90;99.90
41481;DHT22;27217;51.220;5.308;2022-07-11T03:46:22;15.90;99.90
41481;DHT22;27217;51.220;5.308;2022-07-11T03:48:48;15.80;99.90
41481;DHT22;27217;51.220;5.308;2022-07-11T03:51:15;15.80;99.90
41481;DHT22;27217;51.220;5.308;2022-07-11T03:53:42;15.70;99.90
41481;DHT22;27217;51.220;5.308;2022-07-11T03:56:07;15.80;99.90
41481;DHT22;27217;51.220;5.308;2022-07-11T03:58:33;15.90;99.90
41481;DHT22;27217;51.220;5.308;2022-07-11T04:00:59;16.00;99.90
41481;DHT22;27217;51.220;5.308;2022-07-11T04:03:25;16.00;99.90
41481;DHT22;27217;51.220;5.308;2022-07-11T04:05:51;16.00;99.90
41481;DHT22;27217;51.220;5.308;2022-07-11T04:08:17;16.00;99.90
41481;DHT22;27217;51.220;5.308;2022-07-11T04:10:42;16.00;99.90
41481;DHT22;27217;51.220;5.308;2022-07-11T04:13:08;16.20;99.90
41481;DHT22;27217;51.220;5.308;2022-07-11T04:15:34;16.10;99.90
41481;DHT22;27217;51.220;5.308;2022-07-11T04:18:00;16.20;99.90
41481;DHT22;27217;51.220;5.308;2022-07-11T04:20:26;16.30;99.90
41481;DHT22;27217;51.220;5.308;2022-07-11T04:22:52;16.40;99.90
41481;DHT22;27217;51.220;5.308;2022-07-11T04:25:18;16.30;99.90
41481;DHT22;27217;51.220;5.308;2022-07-11T04:27:44;16.40;99.90
41481;DHT22;27217;51.220;5.308;2022-07-11T04:30:10;16.20;99.90
41481;DHT22;27217;51.220;5.308;2022-07-11T04:32:36;16.40;99.90
41481;DHT22;27217;51.220;5.308;2022-07-11T04:35:02;16.40;99.90
41481;DHT22;27217;51.220;5.308;2022-07-11T04:37:28;16.50;99.90
41481;DHT22;27217;51.220;5.308;2022-07-11T04:39:54;16.50;99.90
41481;DHT22;27217;51.220;5.308;2022-07-11T04:42:20;16.60;99.90
41481;DHT22;27217;51.220;5.308;2022-07-11T04:44:45;16.60;99.90
41481;DHT22;27217;51.220;5.308;2022-07-11T04:47:11;16.70;99.90
41481;DHT22;27217;51.220;5.308;2022-07-11T04:49:37;16.70;99.90
41481;DHT22;27217;51.220;5.308;2022-07-11T04:52:03;16.70;99.90
41481;DHT22;27217;51.220;5.308;2022-07-11T04:54:29;16.80;99.90
41481;DHT22;27217;51.220;5.308;2022-07-11T04:56:54;16.80;99.90
41481;DHT22;27217;51.220;5.308;2022-07-11T04:59:21;17.00;99.90
41481;DHT22;27217;51.220;5.308;2022-07-11T05:01:47;16.90;99.90
41481;DHT22;27217;51.220;5.308;2022-07-11T05:04:13;16.90;99.90
41481;DHT22;27217;51.220;5.308;2022-07-11T05:06:38;17.00;99.90
41481;DHT22;27217;51.220;5.308;2022-07-11T05:09:04;17.10;99.90
41481;DHT22;27217;51.220;5.308;2022-07-11T05:11:33;17.20;99.90
41481;DHT22;27217;51.220;5.308;2022-07-11T05:13:59;17.40;99.90
41481;DHT22;27217;51.220;5.308;2022-07-11T05:16:25;17.60;99.90
41481;DHT22;27217;51.220;5.308;2022-07-11T05:18:51;17.90;99.90
41481;DHT22;27217;51.220;5.308;2022-07-11T05:21:17;18.20;99.90
41481;DHT22;27217;51.220;5.308;2022-07-11T05:23:47;18.20;99.90
41481;DHT22;27217;51.220;5.308;2022-07-11T05:26:13;18.20;99.90
41481;DHT22;27217;51.220;5.308;2022-07-11T05:28:40;18.20;99.90
41481;DHT22;27217;51.220;5.308;2022-07-11T05:31:06;18.40;99.90
41481;DHT22;27217;51.220;5.308;2022-07-11T05:33:31;18.50;99.90
41481;DHT22;27217;51.220;5.308;2022-07-11T05:35:57;18.60;99.90
41481;DHT22;27217;51.220;5.308;2022-07-11T05:38:23;18.70;99.90
41481;DHT22;27217;51.220;5.308;2022-07-11T05:40:49;18.70;99.90
41481;DHT22;27217;51.220;5.308;2022-07-11T05:43:15;18.60;99.90
41481;DHT22;27217;51.220;5.308;2022-07-11T05:45:40;18.80;99.90
41481;DHT22;27217;51.220;5.308;2022-07-11T05:48:06;19.00;99.90
41481;DHT22;27217;51.220;5.308;2022-07-11T05:50:32;19.00;99.90
41481;DHT22;27217;51.220;5.308;2022-07-11T05:52:58;19.00;99.90
41481;DHT22;27217;51.220;5.308;2022-07-11T05:55:24;19.10;99.90
41481;DHT22;27217;51.220;5.308;2022-07-11T05:57:50;19.20;99.90
41481;DHT22;27217;51.220;5.308;2022-07-11T06:00:16;19.10;99.90
41481;DHT22;27217;51.220;5.308;2022-07-11T06:02:42;18.80;99.90
41481;DHT22;27217;51.220;5.308;2022-07-11T06:05:12;18.90;99.90
41481;DHT22;27217;51.220;5.308;2022-07-11T06:07:38;18.80;99.90
41481;DHT22;27217;51.220;5.308;2022-07-11T06:10:22;19.00;99.90
41481;DHT22;27217;51.220;5.308;2022-07-11T06:12:48;19.00;99.90
41481;DHT22;27217;51.220;5.308;2022-07-11T06:15:15;19.20;99.90
41481;DHT22;27217;51.220;5.308;2022-07-11T06:17:40;19.20;99.90
41481;DHT22;27217;51.220;5.308;2022-07-11T06:20:06;19.30;99.90
41481;DHT22;27217;51.220;5.308;2022-07-11T06:22:33;19.40;99.90
41481;DHT22;27217;51.220;5.308;2022-07-11T06:24:59;19.60;99.90
41481;DHT22;27217;51.220;5.308;2022-07-11T06:27:25;19.50;99.90
41481;DHT22;27217;51.220;5.308;2022-07-11T06:29:51;19.60;99.90
41481;DHT22;27217;51.220;5.308;2022-07-11T06:32:17;19.90;99.90
41481;DHT22;27217;51.220;5.308;2022-07-11T06:34:43;19.80;99.90
41481;DHT22;27217;51.220;5.308;2022-07-11T06:37:09;19.90;99.90
41481;DHT22;27217;51.220;5.308;2022-07-11T06:39:34;19.70;99.90
41481;DHT22;27217;51.220;5.308;2022-07-11T06:42:00;19.40;99.90
41481;DHT22;27217;51.220;5.308;2022-07-11T06:44:26;19.20;99.90
41481;DHT22;27217;51.220;5.308;2022-07-11T06:46:52;19.00;99.90
41481;DHT22;27217;51.220;5.308;2022-07-11T06:49:17;19.20;99.90
41481;DHT22;27217;51.220;5.308;2022-07-11T06:51:43;19.40;99.90
41481;DHT22;27217;51.220;5.308;2022-07-11T06:54:09;19.30;99.90
41481;DHT22;27217;51.220;5.308;2022-07-11T06:56:34;19.20;99.90
41481;DHT22;27217;51.220;5.308;2022-07-11T06:59:00;19.20;99.90
41481;DHT22;27217;51.220;5.308;2022-07-11T07:01:26;19.20;99.90
41481;DHT22;27217;51.220;5.308;2022-07-11T07:03:52;19.40;99.90
41481;DHT22;27217;51.220;5.308;2022-07-11T07:06:17;19.60;99.90
41481;DHT22;27217;51.220;5.308;2022-07-11T07:08:44;19.50;99.90
41481;DHT22;27217;51.220;5.308;2022-07-11T07:11:11;19.80;99.90
41481;DHT22;27217;51.220;5.308;2022-07-11T07:13:40;19.80;99.90
41481;DHT22;27217;51.220;5.308;2022-07-11T07:16:06;19.70;99.90
41481;DHT22;27217;51.220;5.308;2022-07-11T07:18:32;19.10;99.90
41481;DHT22;27217;51.220;5.308;2022-07-11T07:20:58;18.90;99.90
41481;DHT22;27217;51.220;5.308;2022-07-11T07:23:24;19.00;99.90
41481;DHT22;27217;51.220;5.308;2022-07-11T07:25:50;19.00;99.90
41481;DHT22;27217;51.220;5.308;2022-07-11T07:28:16;19.00;99.90
41481;DHT22;27217;51.220;5.308;2022-07-11T07:30:42;19.20;99.90
41481;DHT22;27217;51.220;5.308;2022-07-11T07:33:10;19.70;99.90
41481;DHT22;27217;51.220;5.308;2022-07-11T07:35:36;19.60;99.90
41481;DHT22;27217;51.220;5.308;2022-07-11T07:38:02;19.20;99.90
41481;DHT22;27217;51.220;5.308;2022-07-11T07:40:28;19.20;99.90
41481;DHT22;27217;51.220;5.308;2022-07-11T07:42:54;19.00;99.90
41481;DHT22;27217;51.220;5.308;2022-07-11T07:45:20;19.00;99.90
41481;DHT22;27217;51.220;5.308;2022-07-11T07:47:46;19.20;99.90
41481;DHT22;27217;51.220;5.308;2022-07-11T07:50:12;19.40;99.90
41481;DHT22;27217;51.220;5.308;2022-07-11T07:52:38;19.40;99.90
41481;DHT22;27217;51.220;5.308;2022-07-11T07:55:04;19.30;99.90
41481;DHT22;27217;51.220;5.308;2022-07-11T07:57:31;19.20;99.90
41481;DHT22;27217;51.220;5.308;2022-07-11T07:59:57;19.20;99.90
41481;DHT22;27217;51.220;5.308;2022-07-11T08:02:41;19.20;99.90
41481;DHT22;27217;51.220;5.308;2022-07-11T08:05:07;19.60;99.90
41481;DHT22;27217;51.220;5.308;2022-07-11T08:07:34;19.90;99.90
41481;DHT22;27217;51.220;5.308;2022-07-11T08:10:01;20.10;99.90
41481;DHT22;27217;51.220;5.308;2022-07-11T08:12:27;19.80;99.90
41481;DHT22;27217;51.220;5.308;2022-07-11T08:14:53;19.80;99.90
41481;DHT22;27217;51.220;5.308;2022-07-11T08:17:19;20.10;99.90
41481;DHT22;27217;51.220;5.308;2022-07-11T08:19:44;20.20;99.90
41481;DHT22;27217;51.220;5.308;2022-07-11T08:22:10;19.90;99.90
41481;DHT22;27217;51.220;5.308;2022-07-11T08:24:36;19.80;99.90
41481;DHT22;27217;51.220;5.308;2022-07-11T08:27:03;19.80;99.90
41481;DHT22;27217;51.220;5.308;2022-07-11T08:29:29;20.10;99.90
41481;DHT22;27217;51.220;5.308;2022-07-11T08:31:54;20.10;99.90
41481;DHT22;27217;51.220;5.308;2022-07-11T08:34:20;19.70;99.90
41481;DHT22;27217;51.220;5.308;2022-07-11T08:36:45;19.90;99.90
41481;DHT22;27217;51.220;5.308;2022-07-11T08:39:11;20.10;99.90
41481;DHT22;27217;51.220;5.308;2022-07-11T08:41:38;20.10;99.90
41481;DHT22;27217;51.220;5.308;2022-07-11T08:44:08;20.50;99.90
41481;DHT22;27217;51.220;5.308;2022-07-11T08:46:34;20.20;99.90
41481;DHT22;27217;51.220;5.308;2022-07-11T08:49:00;20.30;99.90
41481;DHT22;27217;51.220;5.308;2022-07-11T08:51:27;20.10;99.90
41481;DHT22;27217;51.220;5.308;2022-07-11T08:53:54;20.00;99.90
41481;DHT22;27217;51.220;5.308;2022-07-11T08:56:20;19.90;99.90
41481;DHT22;27217;51.220;5.308;2022-07-11T08:58:47;20.00;99.90
41481;DHT22;27217;51.220;5.308;2022-07-11T09:01:16;19.90;99.90
41481;DHT22;27217;51.220;5.308;2022-07-11T09:03:43;19.90;99.90
41481;DHT22;27217;51.220;5.308;2022-07-11T09:06:09;20.10;99.90
41481;DHT22;27217;51.220;5.308;2022-07-11T09:08:36;20.10;99.90
41481;DHT22;27217;51.220;5.308;2022-07-11T09:11:03;20.20;99.90
41481;DHT22;27217;51.220;5.308;2022-07-11T09:13:29;20.40;99.90
41481;DHT22;27217;51.220;5.308;2022-07-11T09:16:04;20.70;99.90
41481;DHT22;27217;51.220;5.308;2022-07-11T09:18:37;20.50;99.90
41481;DHT22;27217;51.220;5.308;2022-07-11T09:21:04;20.80;99.90
41481;DHT22;27217;51.220;5.308;2022-07-11T09:23:50;20.80;99.90
41481;DHT22;27217;51.220;5.308;2022-07-11T09:26:35;21.10;99.90
41481;DHT22;27217;51.220;5.308;2022-07-11T09:31:31;20.80;99.90
41481;DHT22;27217;51.220;5.308;2022-07-11T09:34:07;20.80;99.90
41481;DHT22;27217;51.220;5.308;2022-07-11T09:36:44;20.60;99.90
41481;DHT22;27217;51.220;5.308;2022-07-11T09:39:11;20.50;99.90
41481;DHT22;27217;51.220;5.308;2022-07-11T09:41:37;20.40;99.90
41481;DHT22;27217;51.220;5.308;2022-07-11T09:44:07;20.80;99.90
41481;DHT22;27217;51.220;5.308;2022-07-11T09:46:33;20.90;99.90
41481;DHT22;27217;51.220;5.308;2022-07-11T09:48:59;20.90;99.90
41481;DHT22;27217;51.220;5.308;2022-07-11T09:51:25;21.20;99.90
41481;DHT22;27217;51.220;5.308;2022-07-11T09:53:55;21.50;99.90
41481;DHT22;27217;51.220;5.308;2022-07-11T09:56:25;21.20;99.90
41481;DHT22;27217;51.220;5.308;2022-07-11T09:58:58;21.80;99.90
41481;DHT22;27217;51.220;5.308;2022-07-11T10:01:24;21.90;99.90
41481;DHT22;27217;51.220;5.308;2022-07-11T10:03:49;22.60;99.90
41481;DHT22;27217;51.220;5.308;2022-07-11T10:06:15;23.00;99.90
41481;DHT22;27217;51.220;5.308;2022-07-11T10:08:41;23.10;99.90
41481;DHT22;27217;51.220;5.308;2022-07-11T10:11:07;23.00;99.90
41481;DHT22;27217;51.220;5.308;2022-07-11T10:13:34;22.40;99.90
41481;DHT22;27217;51.220;5.308;2022-07-11T10:16:01;22.30;99.90
41481;DHT22;27217;51.220;5.308;2022-07-11T10:25:56;23.10;99.90
41481;DHT22;27217;51.220;5.308;2022-07-11T10:30:52;23.70;99.90
41481;DHT22;27217;51.220;5.308;2022-07-11T10:33:19;23.70;99.90
41481;DHT22;27217;51.220;5.308;2022-07-11T10:35:46;24.10;99.90
41481;DHT22;27217;51.220;5.308;2022-07-11T10:38:13;24.40;99.90
41481;DHT22;27217;51.220;5.308;2022-07-11T10:48:21;24.30;99.90
41481;DHT22;27217;51.220;5.308;2022-07-11T10:50:47;24.60;99.90
41481;DHT22;27217;51.220;5.308;2022-07-11T10:53:22;24.50;99.90
41481;DHT22;27217;51.220;5.308;2022-07-11T10:58:32;24.90;99.90
41481;DHT22;27217;51.220;5.308;2022-07-11T11:01:08;24.80;99.90
41481;DHT22;27217;51.220;5.308;2022-07-11T11:03:35;24.30;99.90
41481;DHT22;27217;51.220;5.308;2022-07-11T11:06:01;24.20;99.90
41481;DHT22;27217;51.220;5.308;2022-07-11T11:11:00;24.40;99.90
41481;DHT22;27217;51.220;5.308;2022-07-11T11:13:27;24.70;99.90
41481;DHT22;27217;51.220;5.308;2022-07-11T11:15:54;24.80;99.90
41481;DHT22;27217;51.220;5.308;2022-07-11T11:27:11;26.90;99.90
41481;DHT22;27217;51.220;5.308;2022-07-11T11:29:15;27.50;99.90
41481;DHT22;27217;51.220;5.308;2022-07-11T11:31:47;29.70;98.50
41481;DHT22;27217;51.220;5.308;2022-07-11T11:34:13;30.70;95.90
41481;DHT22;27217;51.220;5.308;2022-07-11T11:36:39;32.40;92.80
41481;DHT22;27217;51.220;5.308;2022-07-11T11:39:05;30.80;93.70
41481;DHT22;27217;51.220;5.308;2022-07-11T11:41:31;30.10;94.70
41481;DHT22;27217;51.220;5.308;2022-07-11T11:44:00;28.70;97.00
41481;DHT22;27217;51.220;5.308;2022-07-11T11:46:31;27.10;99.90
41481;DHT22;27217;51.220;5.308;2022-07-11T11:49:01;26.90;99.90
41481;DHT22;27217;51.220;5.308;2022-07-11T11:51:27;26.70;99.90
41481;DHT22;27217;51.220;5.308;2022-07-11T11:53:54;26.00;99.90
41481;DHT22;27217;51.220;5.308;2022-07-11T11:56:21;26.20;99.90
41481;DHT22;27217;51.220;5.308;2022-07-11T11:58:48;26.60;99.90
41481;DHT22;27217;51.220;5.308;2022-07-11T12:01:15;26.50;99.90
41481;DHT22;27217;51.220;5.308;2022-07-11T12:04:04;26.50;99.90
41481;DHT22;27217;51.220;5.308;2022-07-11T12:06:32;27.30;99.90
41481;DHT22;27217;51.220;5.308;2022-07-11T12:09:19;28.10;99.80
41481;DHT22;27217;51.220;5.308;2022-07-11T12:11:45;28.10;99.30
41481;DHT22;27217;51.220;5.308;2022-07-11T12:14:12;28.20;99.20
41481;DHT22;27217;51.220;5.308;2022-07-11T12:16:45;28.40;99.10
41481;DHT22;27217;51.220;5.308;2022-07-11T12:21:45;30.20;95.40
41481;DHT22;27217;51.220;5.308;2022-07-11T12:24:11;32.70;92.60
41481;DHT22;27217;51.220;5.308;2022-07-11T12:26:39;35.20;83.10
41481;DHT22;27217;51.220;5.308;2022-07-11T12:31:41;33.30;80.10
41481;DHT22;27217;51.220;5.308;2022-07-11T12:34:06;32.00;85.50
41481;DHT22;27217;51.220;5.308;2022-07-11T12:36:32;31.30;88.20
41481;DHT22;27217;51.220;5.308;2022-07-11T12:38:58;30.10;91.10
41481;DHT22;27217;51.220;5.308;2022-07-11T12:41:24;29.70;92.50
41481;DHT22;27217;51.220;5.308;2022-07-11T12:43:50;29.60;93.10
41481;DHT22;27217;51.220;5.308;2022-07-11T12:46:35;29.50;93.30
41481;DHT22;27217;51.220;5.308;2022-07-11T12:49:05;30.20;92.50
41481;DHT22;27217;51.220;5.308;2022-07-11T12:51:32;30.20;92.40
41481;DHT22;27217;51.220;5.308;2022-07-11T12:54:06;32.10;89.30
41481;DHT22;27217;51.220;5.308;2022-07-11T12:56:33;33.60;83.50
41481;DHT22;27217;51.220;5.308;2022-07-11T12:58:59;33.80;79.80
41481;DHT22;27217;51.220;5.308;2022-07-11T13:01:26;34.40;76.80
41481;DHT22;27217;51.220;5.308;2022-07-11T13:03:53;36.90;70.60
41481;DHT22;27217;51.220;5.308;2022-07-11T13:06:19;37.80;67.10
41481;DHT22;27217;51.220;5.308;2022-07-11T13:09:05;36.50;64.40
41481;DHT22;27217;51.220;5.308;2022-07-11T13:11:32;37.50;63.80
41481;DHT22;27217;51.220;5.308;2022-07-11T13:13:58;35.30;66.20
41481;DHT22;27217;51.220;5.308;2022-07-11T13:16:24;33.80;68.70
41481;DHT22;27217;51.220;5.308;2022-07-11T13:18:49;32.40;73.10
41481;DHT22;27217;51.220;5.308;2022-07-11T13:21:16;32.00;75.50
41481;DHT22;27217;51.220;5.308;2022-07-11T13:23:41;32.40;74.20
41481;DHT22;27217;51.220;5.308;2022-07-11T13:26:07;32.60;75.30
41481;DHT22;27217;51.220;5.308;2022-07-11T13:28:34;31.50;78.60
41481;DHT22;27217;51.220;5.308;2022-07-11T13:31:00;29.90;84.60
41481;DHT22;27217;51.220;5.308;2022-07-11T13:33:26;29.10;90.50
41481;DHT22;27217;51.220;5.308;2022-07-11T13:35:52;29.00;92.40
41481;DHT22;27217;51.220;5.308;2022-07-11T13:38:18;31.30;89.00
41481;DHT22;27217;51.220;5.308;2022-07-11T13:40:44;33.20;81.10
41481;DHT22;27217;51.220;5.308;2022-07-11T13:43:10;32.90;78.50
41481;DHT22;27217;51.220;5.308;2022-07-11T13:45:37;33.50;78.00
41481;DHT22;27217;51.220;5.308;2022-07-11T13:48:04;34.80;74.40
41481;DHT22;27217;51.220;5.308;2022-07-11T13:50:29;36.70;68.80
41481;DHT22;27217;51.220;5.308;2022-07-11T13:52:55;36.50;66.30
41481;DHT22;27217;51.220;5.308;2022-07-11T13:55:21;34.70;68.90
41481;DHT22;27217;51.220;5.308;2022-07-11T13:57:57;35.10;67.60
41481;DHT22;27217;51.220;5.308;2022-07-11T14:00:23;36.40;64.30
41481;DHT22;27217;51.220;5.308;2022-07-11T14:02:49;35.40;65.60
41481;DHT22;27217;51.220;5.308;2022-07-11T14:05:16;33.50;70.50
41481;DHT22;27217;51.220;5.308;2022-07-11T14:07:43;32.50;74.80
41481;DHT22;27217;51.220;5.308;2022-07-11T14:10:09;31.70;77.80
41481;DHT22;27217;51.220;5.308;2022-07-11T14:12:35;30.90;80.70
41481;DHT22;27217;51.220;5.308;2022-07-11T14:15:01;31.40;80.40
41481;DHT22;27217;51.220;5.308;2022-07-11T14:17:28;33.00;77.00
41481;DHT22;27217;51.220;5.308;2022-07-11T14:19:54;34.70;72.30
41481;DHT22;27217;51.220;5.308;2022-07-11T14:22:19;36.40;68.30
41481;DHT22;27217;51.220;5.308;2022-07-11T14:24:45;36.30;66.70
41481;DHT22;27217;51.220;5.308;2022-07-11T14:27:11;35.90;66.70
41481;DHT22;27217;51.220;5.308;2022-07-11T14:29:37;35.90;65.80
41481;DHT22;27217;51.220;5.308;2022-07-11T14:32:02;35.40;66.20
41481;DHT22;27217;51.220;5.308;2022-07-11T14:34:28;36.80;64.70
41481;DHT22;27217;51.220;5.308;2022-07-11T14:36:54;38.50;62.80
41481;DHT22;27217;51.220;5.308;2022-07-11T14:39:21;39.30;60.70
41481;DHT22;27217;51.220;5.308;2022-07-11T14:41:47;38.40;59.90
41481;DHT22;27217;51.220;5.308;2022-07-11T14:44:12;38.60;60.20
41481;DHT22;27217;51.220;5.308;2022-07-11T14:46:39;36.80;60.50
41481;DHT22;27217;51.220;5.308;2022-07-11T14:49:05;36.00;63.20
41481;DHT22;27217;51.220;5.308;2022-07-11T14:51:34;34.40;66.30
41481;DHT22;27217;51.220;5.308;2022-07-11T14:54:00;33.30;69.00
41481;DHT22;27217;51.220;5.308;2022-07-11T14:56:26;32.70;70.80
41481;DHT22;27217;51.220;5.308;2022-07-11T14:58:51;33.20;71.10
41481;DHT22;27217;51.220;5.308;2022-07-11T15:01:17;34.90;66.40
41481;DHT22;27217;51.220;5.308;2022-07-11T15:03:43;35.40;65.60
41481;DHT22;27217;51.220;5.308;2022-07-11T15:06:28;33.90;68.60
41481;DHT22;27217;51.220;5.308;2022-07-11T15:09:13;31.80;73.40
41481;DHT22;27217;51.220;5.308;2022-07-11T15:11:57;31.30;75.80
41481;DHT22;27217;51.220;5.308;2022-07-11T15:14:41;31.30;77.20
41481;DHT22;27217;51.220;5.308;2022-07-11T15:17:07;32.30;74.90
41481;DHT22;27217;51.220;5.308;2022-07-11T15:19:32;33.30;71.90
41481;DHT22;27217;51.220;5.308;2022-07-11T15:21:58;34.10;69.90
41481;DHT22;27217;51.220;5.308;2022-07-11T15:24:24;35.10;68.40
41481;DHT22;27217;51.220;5.308;2022-07-11T15:26:50;36.00;65.40
41481;DHT22;27217;51.220;5.308;2022-07-11T15:29:16;36.10;65.30
41481;DHT22;27217;51.220;5.308;2022-07-11T15:31:42;37.00;63.60
41481;DHT22;27217;51.220;5.308;2022-07-11T15:34:07;36.90;63.90
41481;DHT22;27217;51.220;5.308;2022-07-11T15:36:33;37.80;62.00
41481;DHT22;27217;51.220;5.308;2022-07-11T15:38:59;38.20;60.70
41481;DHT22;27217;51.220;5.308;2022-07-11T15:41:25;36.40;63.00
41481;DHT22;27217;51.220;5.308;2022-07-11T15:43:50;35.40;65.50
41481;DHT22;27217;51.220;5.308;2022-07-11T15:46:18;33.20;68.80
41481;DHT22;27217;51.220;5.308;2022-07-11T15:48:44;33.30;69.20
41481;DHT22;27217;51.220;5.308;2022-07-11T15:51:10;33.80;69.10
41481;DHT22;27217;51.220;5.308;2022-07-11T15:53:35;33.10;71.00
41481;DHT22;27217;51.220;5.308;2022-07-11T15:56:02;33.70;69.80
41481;DHT22;27217;51.220;5.308;2022-07-11T15:58:29;34.70;68.20
41481;DHT22;27217;51.220;5.308;2022-07-11T16:00:58;33.30;70.00
41481;DHT22;27217;51.220;5.308;2022-07-11T16:03:23;33.30;70.80
41481;DHT22;27217;51.220;5.308;2022-07-11T16:05:49;32.40;71.40
41481;DHT22;27217;51.220;5.308;2022-07-11T16:08:15;32.60;72.80